Rodman, Iowa
Current Conditions -  °F | °C
As of 8:35 AM on Tuesday 21 Oct 2014 (Local Time) from KAXA Reporting Station
Clear Clear  
Wind Chill: 39°   Ceiling: Unl
Heat Index: 39°   Visibility: 7mi
Dew Point: 37°   Wind: 3mph
Humidity: 93%   Direction: 110°ESE
Pressure: 30.15"   Gusts: NA
Location:  43.0372°N, 94.5003°W
Report Text: KAXA 211335Z AUTO 11003KT 7SM CLR 04/03 A3015 RMK AO2
Loading
Personal Weather Stations






























Interactive Weather Map New forecast layout! Learn more

10-Day Weather Forecast

Advertisements
Track Severe Weather on mobile